createdAt,value
2017-09-10T00:00:56.733Z,998.16
2017-09-10T00:01:56.727Z,998.15
2017-09-10T00:02:56.721Z,998.11
2017-09-10T00:03:56.712Z,998.09
2017-09-10T00:04:56.714Z,998.15
2017-09-10T00:05:56.703Z,998.10
2017-09-10T00:06:56.696Z,998.14
2017-09-10T00:07:56.688Z,998.13
2017-09-10T00:08:56.682Z,998.15
2017-09-10T00:09:56.673Z,998.09
2017-09-10T00:10:56.666Z,998.12
2017-09-10T00:11:56.658Z,998.12
2017-09-10T00:12:56.647Z,998.09
2017-09-10T00:13:56.639Z,998.15
2017-09-10T00:14:56.632Z,998.09
2017-09-10T00:15:56.628Z,998.13
2017-09-10T00:16:56.622Z,998.06
2017-09-10T00:17:56.611Z,998.09
2017-09-10T00:18:56.604Z,998.07
2017-09-10T00:19:56.598Z,998.10
2017-09-10T00:20:56.593Z,998.07
2017-09-10T00:21:56.586Z,998.06
2017-09-10T00:22:56.578Z,998.01
2017-09-10T00:23:56.569Z,998.09
2017-09-10T00:24:56.563Z,998.10
2017-09-10T00:25:56.557Z,998.06
2017-09-10T00:26:56.549Z,998.04
2017-09-10T00:27:56.541Z,998.07
2017-09-10T00:28:56.531Z,998.07
2017-09-10T00:29:56.521Z,998.11
2017-09-10T00:30:56.514Z,998.10
2017-09-10T00:31:56.505Z,998.10
2017-09-10T00:32:56.503Z,998.14
2017-09-10T00:33:56.497Z,998.08
2017-09-10T00:34:56.490Z,998.08
2017-09-10T00:35:56.479Z,998.11
2017-09-10T00:36:56.469Z,998.08
2017-09-10T00:37:56.463Z,998.08
2017-09-10T00:38:56.453Z,998.09
2017-09-10T00:39:56.446Z,998.07
2017-09-10T00:40:56.439Z,998.09
2017-09-10T00:41:56.432Z,998.06
2017-09-10T00:42:56.427Z,998.10
2017-09-10T00:43:56.415Z,998.12
2017-09-10T00:44:56.414Z,998.15
2017-09-10T00:45:56.406Z,998.14
2017-09-10T00:46:56.398Z,998.16
2017-09-10T00:47:56.394Z,998.21
2017-09-10T00:48:56.383Z,998.19
2017-09-10T00:49:56.376Z,998.16
2017-09-10T00:50:56.368Z,998.21
2017-09-10T00:51:56.360Z,998.17
2017-09-10T00:52:56.349Z,998.19
2017-09-10T00:53:56.341Z,998.20
2017-09-10T00:54:56.335Z,998.22
2017-09-10T00:55:56.327Z,998.21
2017-09-10T00:56:56.319Z,998.22
2017-09-10T00:57:56.312Z,998.26
2017-09-10T00:58:56.304Z,998.29
2017-09-10T00:59:56.297Z,998.31
2017-09-10T01:00:56.294Z,998.31
2017-09-10T01:01:56.285Z,998.33
2017-09-10T01:02:56.283Z,998.34
2017-09-10T01:03:56.270Z,998.37
2017-09-10T01:04:56.262Z,998.34
2017-09-10T01:05:56.255Z,998.38
2017-09-10T01:06:56.249Z,998.39
2017-09-10T01:07:56.241Z,998.43
2017-09-10T01:08:56.229Z,998.43
2017-09-10T01:09:56.220Z,998.46
2017-09-10T01:10:56.214Z,998.43
2017-09-10T01:11:56.206Z,998.47
2017-09-10T01:12:56.199Z,998.50
2017-09-10T01:13:56.191Z,998.54
2017-09-10T01:14:56.184Z,998.55
2017-09-10T01:15:56.176Z,998.63
2017-09-10T01:16:56.173Z,998.57
2017-09-10T01:17:56.165Z,998.54
2017-09-10T01:18:56.158Z,998.59
2017-09-10T01:19:56.149Z,998.56
2017-09-10T01:20:56.141Z,998.59
2017-09-10T01:21:56.134Z,998.62
2017-09-10T01:22:56.127Z,998.65
2017-09-10T01:23:56.118Z,998.62
2017-09-10T01:24:56.108Z,998.61
2017-09-10T01:25:56.100Z,998.62
2017-09-10T01:26:56.092Z,998.64
2017-09-10T01:27:56.085Z,998.64
2017-09-10T01:28:56.078Z,998.65
2017-09-10T01:29:56.069Z,998.65
2017-09-10T01:30:56.063Z,998.65
2017-09-10T01:31:56.053Z,998.65
2017-09-10T01:32:56.052Z,998.67
2017-09-10T01:33:56.044Z,998.68
2017-09-10T01:34:56.036Z,998.67
2017-09-10T01:35:56.027Z,998.66
2017-09-10T01:36:56.016Z,998.65
2017-09-10T01:37:56.008Z,998.66
2017-09-10T01:38:56.002Z,998.65
2017-09-10T01:39:55.992Z,998.66
2017-09-10T01:40:55.989Z,998.66
2017-09-10T01:41:55.982Z,998.73
2017-09-10T01:42:55.974Z,998.68
2017-09-10T01:43:55.967Z,998.71
2017-09-10T01:44:55.960Z,998.73
2017-09-10T01:45:55.952Z,998.65
2017-09-10T01:46:55.945Z,998.73
2017-09-10T01:47:55.936Z,998.73
2017-09-10T01:48:55.923Z,998.75
2017-09-10T01:49:55.916Z,998.73
2017-09-10T01:50:55.910Z,998.73
2017-09-10T01:51:55.900Z,998.78
2017-09-10T01:52:55.894Z,998.73
2017-09-10T01:53:55.887Z,998.70
2017-09-10T01:54:55.879Z,998.72
2017-09-10T01:55:55.871Z,998.69
2017-09-10T01:56:55.867Z,998.72
2017-09-10T01:57:55.860Z,998.75
2017-09-10T01:58:55.853Z,998.78
2017-09-10T01:59:55.842Z,998.83
2017-09-10T02:00:55.861Z,998.79
2017-09-10T02:01:55.829Z,998.80
2017-09-10T02:02:55.821Z,998.84
2017-09-10T02:03:55.814Z,998.84
2017-09-10T02:04:55.801Z,998.82
2017-09-10T02:05:55.793Z,998.88
2017-09-10T02:06:55.787Z,998.88
2017-09-10T02:07:55.779Z,998.91
2017-09-10T02:08:55.771Z,998.90
2017-09-10T02:09:55.762Z,998.89
2017-09-10T02:10:55.756Z,998.95
2017-09-10T02:11:55.747Z,998.96
2017-09-10T02:12:55.744Z,998.97
2017-09-10T02:13:55.736Z,998.91
2017-09-10T02:14:55.730Z,998.98
2017-09-10T02:15:55.721Z,998.96
2017-09-10T02:16:55.714Z,998.97
2017-09-10T02:17:55.708Z,999.04
2017-09-10T02:18:55.699Z,999.01
2017-09-10T02:19:55.691Z,999.04
2017-09-10T02:20:55.679Z,999.05
2017-09-10T02:21:55.671Z,998.97
2017-09-10T02:22:55.664Z,999.00
2017-09-10T02:23:55.655Z,999.01
2017-09-10T02:24:55.649Z,999.00
2017-09-10T02:25:55.640Z,999.04
2017-09-10T02:26:55.634Z,999.05
2017-09-10T02:27:55.624Z,999.09
2017-09-10T02:28:55.623Z,999.04
2017-09-10T02:29:55.614Z,999.10
2017-09-10T02:30:55.606Z,999.09
2017-09-10T02:31:55.599Z,999.08
2017-09-10T02:32:55.592Z,999.11
2017-09-10T02:33:55.584Z,999.10
2017-09-10T02:34:55.575Z,999.09
2017-09-10T02:35:55.567Z,999.13
2017-09-10T02:36:55.556Z,999.04
2017-09-10T02:37:55.549Z,999.15
2017-09-10T02:38:55.541Z,999.13
2017-09-10T02:39:55.573Z,999.14
2017-09-10T02:40:55.525Z,999.10
2017-09-10T02:41:55.517Z,999.15
2017-09-10T02:42:55.511Z,999.17
2017-09-10T02:43:55.501Z,999.18
2017-09-10T02:44:55.498Z,999.14
2017-09-10T02:45:55.492Z,999.19
2017-09-10T02:46:55.483Z,999.17
2017-09-10T02:47:55.475Z,999.15
2017-09-10T02:48:55.469Z,999.15
2017-09-10T02:49:55.460Z,999.10
2017-09-10T02:50:55.454Z,999.16
2017-09-10T02:51:55.444Z,999.16
2017-09-10T02:52:55.434Z,999.16
2017-09-10T02:53:55.425Z,999.18
2017-09-10T02:54:55.418Z,999.25
2017-09-10T02:55:55.409Z,999.22
2017-09-10T02:56:55.401Z,999.23
2017-09-10T02:57:55.393Z,999.30
2017-09-10T02:58:55.386Z,999.27
2017-09-10T02:59:55.378Z,999.30
2017-09-10T03:00:55.375Z,999.25
2017-09-10T03:01:55.368Z,999.30
2017-09-10T03:02:55.360Z,999.26
2017-09-10T03:03:55.351Z,999.29
2017-09-10T03:04:55.344Z,999.27
2017-09-10T03:05:55.336Z,999.28
2017-09-10T03:06:55.328Z,999.25
2017-09-10T03:07:55.320Z,999.32
2017-09-10T03:08:55.309Z,999.28
2017-09-10T03:09:55.300Z,999.28
2017-09-10T03:10:55.294Z,999.32
2017-09-10T03:11:55.283Z,999.32
2017-09-10T03:12:55.276Z,999.33
2017-09-10T03:13:55.269Z,999.33
2017-09-10T03:14:55.262Z,999.29
2017-09-10T03:15:55.253Z,999.29
2017-09-10T03:16:55.250Z,999.27
2017-09-10T03:17:55.243Z,999.31
2017-09-10T03:18:55.235Z,999.28
2017-09-10T03:19:55.225Z,999.29
2017-09-10T03:20:55.218Z,999.28
2017-09-10T03:21:55.214Z,999.27
2017-09-10T03:22:55.203Z,999.26
2017-09-10T03:23:55.195Z,999.26
2017-09-10T03:24:55.183Z,999.31
2017-09-10T03:25:55.176Z,999.31
2017-09-10T03:26:55.168Z,999.29
2017-09-10T03:27:55.159Z,999.29
2017-09-10T03:28:55.152Z,999.31
2017-09-10T03:29:55.143Z,999.32
2017-09-10T03:30:55.139Z,999.32
2017-09-10T03:31:55.128Z,999.33
2017-09-10T03:32:55.126Z,999.31
2017-09-10T03:33:55.116Z,999.31
2017-09-10T03:34:55.109Z,999.29
2017-09-10T03:35:55.101Z,999.29
2017-09-10T03:36:55.094Z,999.35
2017-09-10T03:37:55.086Z,999.30
2017-09-10T03:38:55.077Z,999.33
2017-09-10T03:39:55.070Z,999.32
2017-09-10T03:40:55.057Z,999.30
2017-09-10T03:41:55.051Z,999.35
2017-09-10T03:42:55.042Z,999.30
2017-09-10T03:43:55.034Z,999.35
2017-09-10T03:44:55.032Z,999.33
2017-09-10T03:45:55.049Z,999.38
2017-09-10T03:46:55.015Z,999.35
2017-09-10T03:47:55.007Z,999.38
2017-09-10T03:48:54.996Z,999.39
2017-09-10T03:49:54.988Z,999.37
2017-09-10T03:50:54.980Z,999.43
2017-09-10T03:51:54.972Z,999.44
2017-09-10T03:52:54.966Z,999.44
2017-09-10T03:53:54.957Z,999.45
2017-09-10T03:54:54.950Z,999.43
2017-09-10T03:55:54.941Z,999.47
2017-09-10T03:56:54.938Z,999.48
2017-09-10T03:57:54.933Z,999.49
2017-09-10T03:58:54.922Z,999.50
2017-09-10T03:59:54.915Z,999.43
2017-09-10T04:00:54.907Z,999.48
2017-09-10T04:01:54.898Z,999.46
2017-09-10T04:02:54.894Z,999.41
2017-09-10T04:03:54.882Z,999.37
2017-09-10T04:04:54.871Z,999.38
2017-09-10T04:05:54.862Z,999.38
2017-09-10T04:06:54.856Z,999.40
2017-09-10T04:07:54.846Z,999.39
2017-09-10T04:08:54.838Z,999.40
2017-09-10T04:09:54.833Z,999.43
2017-09-10T04:10:54.824Z,999.46
2017-09-10T04:11:54.816Z,999.41
2017-09-10T04:12:54.814Z,999.43
2017-09-10T04:13:54.805Z,999.44
2017-09-10T04:14:54.798Z,999.48
2017-09-10T04:15:54.789Z,999.45
2017-09-10T04:16:54.781Z,999.45
2017-09-10T04:17:54.773Z,999.46
2017-09-10T04:18:54.765Z,999.50
2017-09-10T04:19:54.759Z,999.56
2017-09-10T04:20:54.747Z,999.51
2017-09-10T04:21:54.740Z,999.55
2017-09-10T04:22:54.736Z,999.58
2017-09-10T04:23:54.723Z,999.57
2017-09-10T04:24:54.716Z,999.54
2017-09-10T04:25:54.708Z,999.60
2017-09-10T04:26:54.700Z,999.60
2017-09-10T04:27:54.693Z,999.60
2017-09-10T04:28:54.689Z,999.68
2017-09-10T04:29:54.680Z,999.63
2017-09-10T04:30:54.674Z,999.65
2017-09-10T04:31:54.666Z,999.66
2017-09-10T04:32:54.658Z,999.62
2017-09-10T04:33:54.650Z,999.59
2017-09-10T04:34:54.643Z,999.64
2017-09-10T04:35:54.635Z,999.63
2017-09-10T04:36:54.623Z,999.61
2017-09-10T04:37:54.615Z,999.62
2017-09-10T04:38:54.609Z,999.61
2017-09-10T04:39:54.600Z,999.66
2017-09-10T04:40:54.593Z,999.63
2017-09-10T04:41:54.584Z,999.63
2017-09-10T04:42:54.576Z,999.62
2017-09-10T04:43:54.568Z,999.72
2017-09-10T04:44:54.564Z,999.66
2017-09-10T04:45:54.556Z,999.72
2017-09-10T04:46:54.555Z,999.76
2017-09-10T04:47:54.542Z,999.75
2017-09-10T04:48:54.530Z,999.75
2017-09-10T04:49:54.523Z,999.78
2017-09-10T04:50:54.514Z,999.81
2017-09-10T04:51:54.507Z,999.77
2017-09-10T04:52:54.503Z,999.82
2017-09-10T04:53:54.496Z,999.80
2017-09-10T04:54:54.489Z,999.80
2017-09-10T04:55:54.479Z,999.84
2017-09-10T04:56:54.472Z,999.80
2017-09-10T04:57:54.465Z,999.80
2017-09-10T04:58:54.458Z,999.80
2017-09-10T04:59:54.449Z,999.82
2017-09-10T05:00:54.441Z,999.84
2017-09-10T05:01:54.429Z,999.82
2017-09-10T05:02:54.422Z,999.89
2017-09-10T05:03:54.420Z,999.83
2017-09-10T05:04:54.407Z,999.82
2017-09-10T05:05:54.400Z,999.84
2017-09-10T05:06:54.393Z,999.85
2017-09-10T05:07:54.382Z,999.87
2017-09-10T05:08:54.379Z,999.88
2017-09-10T05:09:54.372Z,999.88
2017-09-10T05:10:54.364Z,999.95
2017-09-10T05:11:54.355Z,999.92
2017-09-10T05:12:54.349Z,999.94
2017-09-10T05:13:54.341Z,999.92
2017-09-10T05:14:54.333Z,999.93
2017-09-10T05:15:54.324Z,999.98
2017-09-10T05:16:54.312Z,1000.01
2017-09-10T05:17:54.305Z,1000.00
2017-09-10T05:18:54.297Z,1000.03
2017-09-10T05:19:54.290Z,1000.06
2017-09-10T05:20:54.283Z,999.97
2017-09-10T05:21:54.273Z,1000.01
2017-09-10T05:22:54.269Z,1000.05
2017-09-10T05:23:54.259Z,1000.08
2017-09-10T05:24:54.255Z,1000.07
2017-09-10T05:25:54.248Z,1000.07
2017-09-10T05:26:54.241Z,1000.12
2017-09-10T05:27:54.236Z,1000.14
2017-09-10T05:28:54.225Z,1000.19
2017-09-10T05:29:54.218Z,1000.20
2017-09-10T05:30:54.209Z,1000.15
2017-09-10T05:31:54.202Z,1000.25
2017-09-10T05:32:54.190Z,1000.23
2017-09-10T05:33:54.183Z,1000.27
2017-09-10T05:34:54.176Z,1000.36
2017-09-10T05:35:54.169Z,1000.36
2017-09-10T05:36:54.161Z,1000.44
2017-09-10T05:37:54.154Z,1000.45
2017-09-10T05:38:54.146Z,1000.48
2017-09-10T05:39:54.139Z,1000.48
2017-09-10T05:40:54.136Z,1000.41
2017-09-10T05:41:54.130Z,1000.46
2017-09-10T05:42:54.123Z,1000.46
2017-09-10T05:43:54.115Z,1000.49
2017-09-10T05:44:54.109Z,1000.47
2017-09-10T05:45:54.104Z,1000.53
2017-09-10T05:46:54.097Z,1000.58
2017-09-10T05:47:54.090Z,1000.61
2017-09-10T05:48:54.080Z,1000.57
2017-09-10T05:49:54.076Z,1000.58
2017-09-10T05:50:54.073Z,1000.57
2017-09-10T05:51:54.066Z,1000.60
2017-09-10T05:52:54.061Z,1000.67
2017-09-10T05:53:54.056Z,1000.61
2017-09-10T05:54:54.058Z,1000.64
2017-09-10T05:55:54.045Z,1000.68
2017-09-10T05:56:54.036Z,1000.72
2017-09-10T05:57:54.031Z,1000.67
2017-09-10T05:58:54.027Z,1000.75
2017-09-10T05:59:54.021Z,1000.74
2017-09-10T06:00:54.017Z,1000.74
2017-09-10T06:01:54.012Z,1000.73
2017-09-10T06:02:54.009Z,1000.74
2017-09-10T06:03:54.004Z,1000.72
2017-09-10T06:04:54.004Z,1000.77
2017-09-10T06:05:53.998Z,1000.76
2017-09-10T06:06:53.997Z,1000.81
2017-09-10T06:07:53.991Z,1000.81
2017-09-10T06:08:53.989Z,1000.78
2017-09-10T06:09:53.986Z,1000.81
2017-09-10T06:10:53.982Z,1000.88
2017-09-10T06:11:53.979Z,1000.92
2017-09-10T06:12:53.975Z,1000.99
2017-09-10T06:13:53.969Z,1000.94
2017-09-10T06:14:53.966Z,1000.99
2017-09-10T06:15:53.963Z,1001.06
2017-09-10T06:16:53.960Z,1001.07
2017-09-10T06:17:53.957Z,1001.14
2017-09-10T06:18:53.956Z,1001.15
2017-09-10T06:19:53.955Z,1001.13
2017-09-10T06:20:53.956Z,1001.14
2017-09-10T06:21:53.954Z,1001.18
2017-09-10T06:22:53.952Z,1001.19
2017-09-10T06:23:53.952Z,1001.16
2017-09-10T06:24:53.950Z,1001.19
2017-09-10T06:25:53.949Z,1001.18
2017-09-10T06:26:53.947Z,1001.24
2017-09-10T06:27:53.945Z,1001.22
2017-09-10T06:28:53.941Z,1001.24
2017-09-10T06:29:53.941Z,1001.18
2017-09-10T06:30:53.940Z,1001.21
2017-09-10T06:31:53.940Z,1001.24
2017-09-10T06:32:53.939Z,1001.20
2017-09-10T06:33:53.940Z,1001.21
2017-09-10T06:34:53.940Z,1001.21
2017-09-10T06:35:53.939Z,1001.19
2017-09-10T06:36:53.942Z,1001.17
2017-09-10T06:37:53.944Z,1001.18
2017-09-10T06:38:53.945Z,1001.17
2017-09-10T06:39:53.944Z,1001.22
2017-09-10T06:40:53.945Z,1001.22
2017-09-10T06:41:53.947Z,1001.23
2017-09-10T06:42:53.947Z,1001.24
2017-09-10T06:43:53.948Z,1001.28
2017-09-10T06:44:53.945Z,1001.21
2017-09-10T06:45:53.946Z,1001.19
2017-09-10T06:46:53.951Z,1001.19
2017-09-10T06:47:53.949Z,1001.20
2017-09-10T06:48:53.951Z,1001.15
2017-09-10T06:49:53.954Z,1001.18
2017-09-10T06:50:53.954Z,1001.18
2017-09-10T06:51:53.956Z,1001.17
2017-09-10T06:52:53.962Z,1001.11
2017-09-10T06:53:53.962Z,1001.19
2017-09-10T06:54:53.965Z,1001.21
2017-09-10T06:55:53.967Z,1001.19
2017-09-10T06:56:53.964Z,1001.22
2017-09-10T06:57:53.967Z,1001.21
2017-09-10T06:58:53.968Z,1001.13
2017-09-10T06:59:53.971Z,1001.19
2017-09-10T07:00:53.978Z,1001.17
2017-09-10T07:01:53.980Z,1001.16
2017-09-10T07:02:53.984Z,1001.19
2017-09-10T07:03:53.985Z,1001.16
2017-09-10T07:04:53.988Z,1001.15
2017-09-10T07:05:53.992Z,1001.16
2017-09-10T07:06:53.994Z,1001.10
2017-09-10T07:07:53.997Z,1001.12
2017-09-10T07:08:53.997Z,1001.16
2017-09-10T07:09:54.000Z,1001.14
2017-09-10T07:10:54.005Z,1001.20
2017-09-10T07:11:54.008Z,1001.19
2017-09-10T07:12:54.011Z,1001.23
2017-09-10T07:13:54.014Z,1001.28
2017-09-10T07:14:54.019Z,1001.27
2017-09-10T07:15:54.021Z,1001.25
2017-09-10T07:16:54.029Z,1001.30
2017-09-10T07:17:54.033Z,1001.32
2017-09-10T07:18:54.037Z,1001.34
2017-09-10T07:19:54.039Z,1001.31
2017-09-10T07:20:54.045Z,1001.35
2017-09-10T07:21:54.049Z,1001.34
2017-09-10T07:22:54.055Z,1001.33
2017-09-10T07:23:54.057Z,1001.34
2017-09-10T07:24:54.058Z,1001.35
2017-09-10T07:25:54.063Z,1001.39
2017-09-10T07:26:54.068Z,1001.44
2017-09-10T07:27:54.072Z,1001.40
2017-09-10T07:28:54.077Z,1001.36
2017-09-10T07:29:54.082Z,1001.40
2017-09-10T07:30:54.088Z,1001.47
2017-09-10T07:31:54.092Z,1001.44
2017-09-10T07:32:54.102Z,1001.46
2017-09-10T07:33:54.108Z,1001.46
2017-09-10T07:34:54.112Z,1001.52
2017-09-10T07:35:54.118Z,1001.45
2017-09-10T07:36:54.124Z,1001.44
2017-09-10T07:37:54.129Z,1001.48
2017-09-10T07:38:54.135Z,1001.46
2017-09-10T07:39:54.139Z,1001.48
2017-09-10T07:40:54.147Z,1001.47
2017-09-10T07:41:54.150Z,1001.47
2017-09-10T07:42:54.155Z,1001.49
2017-09-10T07:43:54.160Z,1001.50
2017-09-10T07:44:54.169Z,1001.47
2017-09-10T07:45:54.172Z,1001.40
2017-09-10T07:46:54.179Z,1001.41
2017-09-10T07:47:54.186Z,1001.39
2017-09-10T07:48:54.197Z,1001.45
2017-09-10T07:49:54.202Z,1001.46
2017-09-10T07:50:54.210Z,1001.51
2017-09-10T07:51:54.218Z,1001.48
2017-09-10T07:52:54.222Z,1001.51
2017-09-10T07:53:54.235Z,1001.52
2017-09-10T07:54:54.238Z,1001.62
2017-09-10T07:55:54.249Z,1001.54
2017-09-10T07:56:54.249Z,1001.54
2017-09-10T07:57:54.258Z,1001.57
2017-09-10T07:58:54.261Z,1001.54
2017-09-10T07:59:54.268Z,1001.59
2017-09-10T08:00:54.288Z,1001.59
2017-09-10T08:01:54.298Z,1001.59
2017-09-10T08:02:54.296Z,1001.56
2017-09-10T08:03:54.566Z,1001.56
2017-09-10T08:04:54.381Z,1001.57
2017-09-10T08:05:54.450Z,1001.53
2017-09-10T08:06:54.465Z,1001.56
2017-09-10T08:07:54.347Z,1001.60
2017-09-10T08:08:54.350Z,1001.61
2017-09-10T08:09:54.349Z,1001.64
2017-09-10T08:10:54.360Z,1001.63
2017-09-10T08:11:54.366Z,1001.66
2017-09-10T08:12:54.378Z,1001.68
2017-09-10T08:13:54.387Z,1001.73
2017-09-10T08:14:54.397Z,1001.83
2017-09-10T08:15:54.407Z,1001.81
2017-09-10T08:16:54.415Z,1001.81
2017-09-10T08:17:54.422Z,1001.84
2017-09-10T08:18:54.431Z,1001.82
2017-09-10T08:19:54.441Z,1001.65
2017-09-10T08:20:54.447Z,1001.80
2017-09-10T08:21:54.457Z,1001.75
2017-09-10T08:22:54.466Z,1001.67
2017-09-10T08:23:54.475Z,1001.70
2017-09-10T08:24:54.485Z,1001.72
2017-09-10T08:25:54.494Z,1001.58
2017-09-10T08:26:54.505Z,1001.71
2017-09-10T08:27:54.516Z,1001.75
2017-09-10T08:28:54.526Z,1001.78
2017-09-10T08:29:54.536Z,1001.80
2017-09-10T08:30:54.546Z,1001.82
2017-09-10T08:31:54.557Z,1001.78
2017-09-10T08:32:54.566Z,1001.82
2017-09-10T08:33:54.577Z,1001.84
2017-09-10T08:34:54.588Z,1001.84
2017-09-10T08:35:54.596Z,1001.86
2017-09-10T08:36:54.603Z,1001.84
2017-09-10T08:37:54.617Z,1001.86
2017-09-10T08:38:54.624Z,1001.92
2017-09-10T08:39:54.637Z,1001.87
2017-09-10T08:40:54.646Z,1001.92
2017-09-10T08:41:54.655Z,1001.88
2017-09-10T08:42:54.669Z,1001.95
2017-09-10T08:43:54.679Z,1001.99
2017-09-10T08:44:54.693Z,1001.97
2017-09-10T08:45:54.706Z,1002.01
2017-09-10T08:46:54.716Z,1001.97
2017-09-10T08:47:54.729Z,1001.97
2017-09-10T08:48:54.741Z,1002.01
2017-09-10T08:49:54.752Z,1001.98
2017-09-10T08:50:54.766Z,1001.99
2017-09-10T08:51:54.775Z,1002.00
2017-09-10T08:52:54.783Z,1002.04
2017-09-10T08:53:54.797Z,1002.06
2017-09-10T08:54:54.807Z,1002.10
2017-09-10T08:55:54.819Z,1002.12
2017-09-10T08:56:54.833Z,1002.02
2017-09-10T08:57:54.844Z,1001.96
2017-09-10T08:58:54.857Z,1002.03
2017-09-10T08:59:54.869Z,1002.05
2017-09-10T09:00:54.886Z,1001.79
2017-09-10T09:01:54.900Z,1002.10
2017-09-10T09:02:54.913Z,1001.75
2017-09-10T09:03:54.924Z,1001.58
2017-09-10T09:04:54.933Z,1002.10
2017-09-10T09:05:54.947Z,1002.11
2017-09-10T09:06:54.959Z,1001.66
2017-09-10T09:07:54.969Z,1002.06
2017-09-10T09:08:54.988Z,1002.15
2017-09-10T09:09:55.002Z,1001.97
2017-09-10T09:10:55.012Z,1001.55
2017-09-10T09:11:55.024Z,1001.53
2017-09-10T09:12:55.038Z,1001.54
2017-09-10T09:13:55.048Z,1001.47
2017-09-10T09:14:55.062Z,1001.94
2017-09-10T09:15:55.073Z,1001.89
2017-09-10T09:16:55.091Z,1001.93
2017-09-10T09:17:55.094Z,1001.41
2017-09-10T09:18:55.104Z,1001.45
2017-09-10T09:19:55.114Z,1001.58
2017-09-10T09:20:55.124Z,1002.02
2017-09-10T09:21:55.136Z,1001.48
2017-09-10T09:22:55.148Z,1001.38
2017-09-10T09:23:55.157Z,1001.37
2017-09-10T09:24:55.172Z,1001.95
2017-09-10T09:25:55.182Z,1001.65
2017-09-10T09:26:55.200Z,1001.37
2017-09-10T09:27:55.201Z,1001.91
2017-09-10T09:28:55.211Z,1002.07
2017-09-10T09:29:55.221Z,1001.95
2017-09-10T09:30:55.230Z,1002.27
2017-09-10T09:31:55.240Z,1002.18
2017-09-10T09:32:55.249Z,1002.01
2017-09-10T09:33:55.256Z,1002.23
2017-09-10T09:34:55.265Z,1002.14
2017-09-10T09:35:55.273Z,1002.29
2017-09-10T09:36:55.284Z,1001.69
2017-09-10T09:37:55.295Z,1002.37
2017-09-10T09:38:55.306Z,1001.52
2017-09-10T09:39:55.316Z,1001.40
2017-09-10T09:40:55.331Z,1001.36
2017-09-10T09:41:55.342Z,1001.34
2017-09-10T09:42:55.353Z,1001.28
2017-09-10T09:43:55.361Z,1001.30
2017-09-10T09:44:55.372Z,1001.41
2017-09-10T09:45:55.382Z,1001.23
2017-09-10T09:46:55.391Z,1001.30
2017-09-10T09:47:55.423Z,1001.41
2017-09-10T09:48:55.405Z,1001.75
2017-09-10T09:49:55.413Z,1001.67
2017-09-10T09:50:55.425Z,1001.44
2017-09-10T09:51:55.429Z,1001.67
2017-09-10T09:52:55.437Z,1001.29
2017-09-10T09:53:55.451Z,1001.35
2017-09-10T09:54:55.453Z,1001.67
2017-09-10T09:55:55.461Z,1001.77
2017-09-10T09:56:55.479Z,1001.32
2017-09-10T09:57:55.483Z,1001.29
2017-09-10T09:58:55.490Z,1001.30
2017-09-10T09:59:55.500Z,1001.40
2017-09-10T10:00:55.509Z,1001.33
2017-09-10T10:01:55.515Z,1001.44
2017-09-10T10:02:55.525Z,1001.67
2017-09-10T10:03:55.531Z,1001.75
2017-09-10T10:04:55.536Z,1001.63
2017-09-10T10:05:55.547Z,1001.65
2017-09-10T10:06:55.553Z,1001.59
2017-09-10T10:07:55.562Z,1001.53
2017-09-10T10:08:55.575Z,1001.23
2017-09-10T10:09:55.585Z,1001.60
2017-09-10T10:10:55.593Z,1001.30
2017-09-10T10:11:55.602Z,1001.13
2017-09-10T10:12:55.608Z,1001.21
2017-09-10T10:13:55.619Z,1001.20
2017-09-10T10:14:55.630Z,1001.51
2017-09-10T10:15:55.641Z,1001.46
2017-09-10T10:16:55.650Z,1001.50
2017-09-10T10:17:55.659Z,1001.46
2017-09-10T10:18:55.670Z,1001.55
2017-09-10T10:19:55.680Z,1001.49
2017-09-10T10:20:55.693Z,1001.48
2017-09-10T10:21:55.705Z,1001.48
2017-09-10T10:22:55.717Z,1001.49
2017-09-10T10:23:55.727Z,1001.42
2017-09-10T10:24:55.744Z,1001.45
2017-09-10T10:25:55.750Z,1001.42
2017-09-10T10:26:55.760Z,1001.44
2017-09-10T10:27:55.772Z,1001.48
2017-09-10T10:28:55.780Z,1001.44
2017-09-10T10:29:55.790Z,1001.47
2017-09-10T10:30:55.804Z,1001.41
2017-09-10T10:31:55.815Z,1001.30
2017-09-10T10:32:55.827Z,1001.33
2017-09-10T10:33:55.839Z,1001.34
2017-09-10T10:34:55.852Z,1001.37
2017-09-10T10:35:55.864Z,1001.39
2017-09-10T10:36:55.879Z,1001.42
2017-09-10T10:37:55.891Z,1001.44
2017-09-10T10:38:55.904Z,1001.46
2017-09-10T10:39:55.916Z,1001.47
2017-09-10T10:40:55.928Z,1001.46
2017-09-10T10:41:55.941Z,1001.48
2017-09-10T10:42:55.955Z,1001.52
2017-09-10T10:43:55.966Z,1001.57
2017-09-10T10:44:55.975Z,1001.22
2017-09-10T10:45:55.988Z,1001.25
2017-09-10T10:46:56.004Z,1001.15
2017-09-10T10:47:56.012Z,1001.13
2017-09-10T10:48:56.024Z,1001.33
2017-09-10T10:49:56.038Z,1001.34
2017-09-10T10:50:56.047Z,1001.30
2017-09-10T10:51:56.058Z,1001.32
2017-09-10T10:52:56.074Z,1001.35
2017-09-10T10:53:56.085Z,1001.32
2017-09-10T10:54:56.096Z,1001.34
2017-09-10T10:55:56.107Z,1001.42
2017-09-10T10:56:56.119Z,1001.48
2017-09-10T10:57:56.128Z,1001.36
2017-09-10T10:58:56.141Z,1001.08
2017-09-10T10:59:56.150Z,1001.10
2017-09-10T11:00:56.158Z,1001.23
2017-09-10T11:01:56.169Z,1001.15
2017-09-10T11:02:56.180Z,1001.13
2017-09-10T11:03:56.190Z,1001.13
2017-09-10T11:04:56.200Z,1001.04
2017-09-10T11:05:56.211Z,1001.05
2017-09-10T11:06:56.221Z,1001.08
2017-09-10T11:07:56.230Z,1001.26
2017-09-10T11:08:56.245Z,1001.04
2017-09-10T11:09:56.254Z,1001.26
2017-09-10T11:10:56.262Z,1001.24
2017-09-10T11:11:56.272Z,1000.98
2017-09-10T11:12:56.281Z,1000.94
2017-09-10T11:13:56.288Z,1000.89
2017-09-10T11:14:56.297Z,1000.90
2017-09-10T11:15:56.303Z,1000.91
2017-09-10T11:16:56.309Z,1000.88
2017-09-10T11:17:56.316Z,1000.83
2017-09-10T11:18:56.324Z,1000.80
2017-09-10T11:19:56.331Z,1000.82
2017-09-10T11:20:56.339Z,1000.89
2017-09-10T11:21:56.345Z,1000.96
2017-09-10T11:22:56.353Z,1000.84
2017-09-10T11:23:56.360Z,1000.74
2017-09-10T11:24:56.370Z,1000.76
2017-09-10T11:25:56.376Z,1000.80
2017-09-10T11:26:56.382Z,1000.88
2017-09-10T11:27:56.388Z,1000.73
2017-09-10T11:28:56.394Z,1000.70
2017-09-10T11:29:56.402Z,1000.63
2017-09-10T11:30:56.406Z,1000.66
2017-09-10T11:31:56.410Z,1000.66
2017-09-10T11:32:56.413Z,1000.73
2017-09-10T11:33:56.416Z,1000.70
2017-09-10T11:34:56.422Z,1000.73
2017-09-10T11:35:56.427Z,1000.71
2017-09-10T11:36:56.432Z,1000.62
2017-09-10T11:37:56.438Z,1000.64
2017-09-10T11:38:56.441Z,1000.59
2017-09-10T11:39:56.445Z,1000.69
2017-09-10T11:40:56.455Z,1000.67
2017-09-10T11:41:56.459Z,1000.69
2017-09-10T11:42:56.464Z,1000.60
2017-09-10T11:43:56.466Z,1000.60
2017-09-10T11:44:56.468Z,1000.67
2017-09-10T11:45:56.474Z,1000.62
2017-09-10T11:46:56.478Z,1000.64
2017-09-10T11:47:56.481Z,1000.52
2017-09-10T11:48:56.480Z,1000.46
2017-09-10T11:49:56.484Z,1000.43
2017-09-10T11:50:56.496Z,1000.44
2017-09-10T11:51:56.488Z,1000.48
2017-09-10T11:52:56.497Z,1000.42
2017-09-10T11:53:56.496Z,1000.43
2017-09-10T11:54:56.498Z,1000.45
2017-09-10T11:55:56.501Z,1000.47
2017-09-10T11:56:56.524Z,1000.49
2017-09-10T11:57:56.512Z,1000.56
2017-09-10T11:58:56.514Z,1000.42
2017-09-10T11:59:56.515Z,1000.32
2017-09-10T12:00:56.525Z,1000.33
2017-09-10T12:01:56.520Z,1000.41
2017-09-10T12:02:56.525Z,1000.37
2017-09-10T12:03:56.525Z,1000.36
2017-09-10T12:04:56.523Z,1000.32
2017-09-10T12:05:56.525Z,1000.31
2017-09-10T12:06:56.528Z,1000.27
2017-09-10T12:07:56.529Z,1000.32
2017-09-10T12:08:56.531Z,1000.31
2017-09-10T12:09:56.534Z,1000.33
2017-09-10T12:10:56.535Z,1000.42
2017-09-10T12:11:56.536Z,1000.33
2017-09-10T12:12:56.542Z,1000.39
2017-09-10T12:13:56.544Z,1000.38
2017-09-10T12:14:56.546Z,1000.35
2017-09-10T12:15:56.546Z,1000.33